createdAt,value
2022-10-17T00:00:40.673Z,100686.63
2022-10-17T00:05:46.515Z,100671.00
2022-10-17T00:11:00.837Z,100653.50
2022-10-17T00:16:03.413Z,100658.81
2022-10-17T00:21:06.529Z,100652.94
2022-10-17T00:26:10.316Z,100638.47
2022-10-17T00:31:13.118Z,100603.81
2022-10-17T00:36:19.072Z,100628.22
2022-10-17T00:41:24.877Z,100624.97
2022-10-17T00:46:30.455Z,100622.41
2022-10-17T00:51:45.386Z,100618.94
2022-10-17T00:56:48.806Z,100596.44
2022-10-17T01:02:01.385Z,100585.34
2022-10-17T01:07:03.970Z,100585.88
2022-10-17T01:12:20.144Z,100583.31
2022-10-17T01:17:31.853Z,100568.63
2022-10-17T01:22:57.357Z,100554.00
2022-10-17T01:28:30.556Z,100553.78
2022-10-17T01:33:38.272Z,100549.72
2022-10-17T01:38:50.646Z,100530.94
2022-10-17T01:44:03.747Z,100531.19
2022-10-17T01:49:10.340Z,100514.63
2022-10-17T01:54:24.721Z,100529.41
2022-10-17T01:59:41.338Z,100513.03
2022-10-17T02:04:45.029Z,100517.22
2022-10-17T02:09:47.666Z,100529.19
2022-10-17T02:15:08.475Z,100519.78
2022-10-17T02:20:31.072Z,100519.66
2022-10-17T02:25:46.507Z,100518.81
2022-10-17T02:30:58.173Z,100516.88
2022-10-17T02:36:06.306Z,100530.56
2022-10-17T02:41:12.776Z,100510.84
2022-10-17T02:46:21.275Z,100500.59
2022-10-17T02:51:56.465Z,100488.69
2022-10-17T02:57:18.733Z,100491.41
2022-10-17T03:02:21.596Z,100492.97
2022-10-17T03:07:24.225Z,100482.69
2022-10-17T03:12:27.142Z,100465.34
2022-10-17T03:17:29.984Z,100440.69
2022-10-17T03:22:32.840Z,100447.78
2022-10-17T03:27:38.025Z,100448.63
2022-10-17T03:32:40.809Z,100432.13
2022-10-17T03:37:44.183Z,100427.00
2022-10-17T03:42:46.777Z,100427.03
2022-10-17T03:47:49.590Z,100434.72
2022-10-17T03:52:52.286Z,100411.72
2022-10-17T03:57:55.157Z,100397.97
2022-10-17T04:02:59.140Z,100402.34
2022-10-17T04:08:04.738Z,100419.50
2022-10-17T04:13:26.392Z,100410.66
2022-10-17T04:18:29.269Z,100400.47
2022-10-17T04:23:32.933Z,100372.13
2022-10-17T04:28:44.279Z,100377.69
2022-10-17T04:33:48.102Z,100376.88
2022-10-17T04:38:50.901Z,100379.66
2022-10-17T04:43:55.106Z,100340.03
2022-10-17T04:48:58.472Z,100379.22
2022-10-17T04:54:01.273Z,100377.63
2022-10-17T04:59:04.646Z,100354.19
2022-10-17T05:04:07.991Z,100355.38
2022-10-17T05:09:11.215Z,100357.03
2022-10-17T05:14:13.835Z,100347.78
2022-10-17T05:19:17.319Z,100339.41
2022-10-17T05:24:23.288Z,100348.81
2022-10-17T05:29:26.584Z,100337.78
2022-10-17T05:34:38.357Z,100321.66
2022-10-17T05:39:41.317Z,100314.31
2022-10-17T05:44:45.562Z,100294.78
2022-10-17T05:49:52.503Z,100294.13
2022-10-17T05:55:06.505Z,100300.09
2022-10-17T06:00:10.006Z,100283.72
2022-10-17T06:05:21.364Z,100305.03
2022-10-17T06:10:24.240Z,100300.66
2022-10-17T06:15:26.944Z,100307.69
2022-10-17T06:20:45.253Z,100311.28
2022-10-17T06:25:51.498Z,100307.84
2022-10-17T06:30:54.289Z,100303.38
2022-10-17T06:35:57.766Z,100294.13
2022-10-17T06:41:09.122Z,100254.03
2022-10-17T06:46:12.596Z,100261.34
2022-10-17T06:51:27.668Z,100252.03
2022-10-17T06:56:32.676Z,100259.06
2022-10-17T07:01:55.917Z,100267.63
2022-10-17T07:07:03.203Z,100271.13
2022-10-17T07:12:08.643Z,100267.69
2022-10-17T07:17:13.457Z,100273.69
2022-10-17T07:22:17.705Z,100270.78
2022-10-17T07:27:23.335Z,100232.78
2022-10-17T07:32:26.861Z,100259.03
2022-10-17T07:37:30.001Z,100269.97
2022-10-17T07:42:42.399Z,100269.91
2022-10-17T07:47:46.341Z,100245.91
2022-10-17T07:52:51.491Z,100238.00
2022-10-17T07:57:54.113Z,100226.72
2022-10-17T08:02:56.745Z,100240.53
2022-10-17T08:08:00.062Z,100233.50
2022-10-17T08:13:03.265Z,100260.94
2022-10-17T08:18:05.891Z,100254.06
2022-10-17T08:23:08.831Z,100253.41
2022-10-17T08:28:11.376Z,100263.03
2022-10-17T08:33:13.955Z,100222.66
2022-10-17T08:38:20.018Z,100222.00
2022-10-17T08:44:03.055Z,100231.47
2022-10-17T08:49:20.922Z,100249.16
2022-10-17T08:54:39.052Z,100255.72
2022-10-17T08:59:43.836Z,100240.88
2022-10-17T09:05:08.134Z,100235.84
2022-10-17T09:10:27.560Z,100239.34
2022-10-17T09:15:49.876Z,100246.97
2022-10-17T09:20:58.419Z,100257.81
2022-10-17T09:26:01.789Z,100241.38
2022-10-17T09:31:22.688Z,100239.97
2022-10-17T09:36:34.785Z,100208.31
2022-10-17T09:41:45.357Z,100218.72
2022-10-17T09:47:04.252Z,100211.81
2022-10-17T09:52:19.963Z,100213.56
2022-10-17T09:57:22.755Z,100171.13
2022-10-17T10:02:27.392Z,100195.66
2022-10-17T10:07:35.720Z,100192.56
2022-10-17T10:12:39.633Z,100179.59
2022-10-17T10:17:42.827Z,100176.03
2022-10-17T10:22:46.283Z,100168.41
2022-10-17T10:27:48.990Z,100146.16
2022-10-17T10:32:52.061Z,100151.38
2022-10-17T10:37:57.729Z,100151.00
2022-10-17T10:43:05.345Z,100152.69
2022-10-17T10:48:30.910Z,100151.00
2022-10-17T10:53:57.072Z,100108.03
2022-10-17T10:59:19.384Z,100122.84
2022-10-17T11:04:40.341Z,100128.94
2022-10-17T11:10:00.350Z,100120.44
2022-10-17T11:15:32.839Z,100125.63
2022-10-17T11:20:53.605Z,100129.06
2022-10-17T11:26:02.842Z,100125.53
2022-10-17T11:31:13.507Z,100118.75
2022-10-17T11:36:19.903Z,100112.63
2022-10-17T11:41:55.443Z,100104.06
2022-10-17T11:47:03.839Z,100088.63
2022-10-17T11:57:56.838Z,100067.22
2022-10-17T12:03:11.010Z,100065.38
2022-10-17T12:08:50.541Z,100053.25
2022-10-17T12:13:55.247Z,100055.06
2022-10-17T12:19:00.614Z,100043.06
2022-10-17T12:24:03.264Z,100025.91
2022-10-17T12:29:32.574Z,100026.72
2022-10-17T12:34:35.270Z,100052.41
2022-10-17T12:39:37.869Z,100059.22
2022-10-17T12:44:40.527Z,100065.22
2022-10-17T12:49:45.636Z,100061.84
2022-10-17T12:55:24.713Z,100093.72
2022-10-17T13:00:59.527Z,100100.56
2022-10-17T13:06:13.777Z,100112.66
2022-10-17T13:11:16.466Z,100126.44
2022-10-17T13:16:40.278Z,100147.19
2022-10-17T13:22:01.084Z,100150.66
2022-10-17T13:27:28.765Z,100156.75
2022-10-17T13:32:40.814Z,100146.47
2022-10-17T13:37:50.253Z,100138.66
2022-10-17T13:42:57.896Z,100137.72
2022-10-17T13:48:04.523Z,100114.47
2022-10-17T13:53:13.231Z,100115.31
2022-10-17T13:58:17.575Z,100078.31
2022-10-17T14:03:22.291Z,100086.22
2022-10-17T14:08:25.272Z,100077.66
2022-10-17T14:13:33.829Z,100081.84
2022-10-17T14:18:37.657Z,100081.66
2022-10-17T14:23:43.594Z,100075.53
2022-10-17T14:29:04.384Z,100086.63
2022-10-17T14:34:07.096Z,100091.78
2022-10-17T14:39:21.031Z,100082.28
2022-10-17T14:44:29.076Z,100091.78
2022-10-17T14:49:33.333Z,100089.97
2022-10-17T14:54:37.605Z,100091.63
2022-10-17T14:59:53.801Z,100083.88
2022-10-17T15:04:57.143Z,100070.03
2022-10-17T15:10:00.057Z,100095.03
2022-10-17T15:15:02.740Z,100116.50
2022-10-17T15:20:14.327Z,100116.53
2022-10-17T15:25:16.944Z,100120.03
2022-10-17T15:30:32.468Z,100128.69
2022-10-17T15:35:37.102Z,100127.03
2022-10-17T15:40:41.650Z,100126.28
2022-10-17T15:45:44.248Z,100121.16
2022-10-17T15:50:46.920Z,100122.16
2022-10-17T15:55:51.065Z,100095.44
2022-10-17T16:00:53.915Z,100114.44
2022-10-17T16:05:57.146Z,100106.72
2022-10-17T16:10:59.728Z,100115.38
2022-10-17T16:16:02.273Z,100101.72
2022-10-17T16:21:05.045Z,100107.81
2022-10-17T16:26:07.817Z,100103.47
2022-10-17T16:31:31.335Z,100124.13
2022-10-17T16:36:34.477Z,100117.25
2022-10-17T16:41:39.421Z,100120.69
2022-10-17T16:46:42.062Z,100119.00
2022-10-17T16:51:44.754Z,100132.78
2022-10-17T16:56:47.478Z,100146.56
2022-10-17T17:01:50.541Z,100138.88
2022-10-17T17:06:53.205Z,100110.44
2022-10-17T17:11:55.767Z,100122.53
2022-10-17T17:16:58.375Z,100137.16
2022-10-17T17:22:01.057Z,100136.34
2022-10-17T17:27:03.641Z,100132.06
2022-10-17T17:32:06.331Z,100139.84
2022-10-17T17:37:08.932Z,100123.44
2022-10-17T17:42:14.960Z,100132.00
2022-10-17T17:47:20.738Z,100118.19
2022-10-17T17:52:23.307Z,100137.13
2022-10-17T17:57:25.945Z,100121.56
2022-10-17T18:02:28.780Z,100133.69
2022-10-17T18:07:31.640Z,100144.00
2022-10-17T18:12:37.361Z,100148.38
2022-10-17T18:17:40.191Z,100138.00
2022-10-17T18:22:42.848Z,100136.34
2022-10-17T18:27:48.067Z,100137.97
2022-10-17T18:32:51.101Z,100154.41
2022-10-17T18:37:56.565Z,100156.13
2022-10-17T18:42:59.227Z,100162.19
2022-10-17T18:48:01.919Z,100167.34
2022-10-17T18:53:05.130Z,100161.28
2022-10-17T18:58:07.730Z,100162.94
2022-10-17T19:03:10.580Z,100171.50
2022-10-17T19:08:15.104Z,100138.75
2022-10-17T19:13:21.479Z,100180.94
2022-10-17T19:18:24.461Z,100173.94
2022-10-17T19:23:27.051Z,100139.38
2022-10-17T19:28:29.806Z,100158.22
2022-10-17T19:33:32.943Z,100170.22
2022-10-17T19:38:36.557Z,100185.66
2022-10-17T19:43:40.913Z,100155.50
2022-10-17T19:48:44.512Z,100150.28
2022-10-17T19:53:47.669Z,100183.09
2022-10-17T19:58:51.185Z,100166.66
2022-10-17T20:03:54.527Z,100165.84
2022-10-17T20:08:57.304Z,100186.56
2022-10-17T20:14:01.900Z,100180.50
2022-10-17T20:19:08.776Z,100188.31
2022-10-17T20:24:14.847Z,100186.59
2022-10-17T20:29:20.188Z,100177.97
2022-10-17T20:34:22.996Z,100174.53
2022-10-17T20:39:25.676Z,100200.31
2022-10-17T20:44:28.259Z,100202.06
2022-10-17T20:49:31.896Z,100189.16
2022-10-17T20:54:34.539Z,100195.28
2022-10-17T20:59:37.736Z,100202.97
2022-10-17T21:04:46.327Z,100189.25
2022-10-17T21:09:49.632Z,100201.28
2022-10-17T21:14:52.193Z,100187.56
2022-10-17T21:19:54.830Z,100187.59
2022-10-17T21:24:57.446Z,100170.22
2022-10-17T21:30:00.057Z,100183.19
2022-10-17T21:35:02.718Z,100167.72
2022-10-17T21:40:06.174Z,100164.28
2022-10-17T21:45:15.358Z,100152.22
2022-10-17T21:50:22.705Z,100182.34
2022-10-17T21:55:25.302Z,100178.13
2022-10-17T22:00:27.907Z,100142.63
2022-10-17T22:05:31.543Z,100155.69
2022-10-17T22:10:37.184Z,100153.06
2022-10-17T22:15:39.783Z,100152.16
2022-10-17T22:20:42.323Z,100143.56
2022-10-17T22:25:53.588Z,100148.78
2022-10-17T22:30:56.210Z,100134.84
2022-10-17T22:35:59.205Z,100149.59
2022-10-17T22:41:02.300Z,100152.16
2022-10-17T22:46:06.953Z,100132.44
2022-10-17T22:51:10.009Z,100135.97
2022-10-17T22:56:16.982Z,100126.50
2022-10-17T23:01:22.299Z,100138.53
2022-10-17T23:06:24.974Z,100123.91
2022-10-17T23:11:27.600Z,100099.81
2022-10-17T23:16:30.311Z,100138.59
2022-10-17T23:21:32.858Z,100093.69
2022-10-17T23:26:35.413Z,100117.00
2022-10-17T23:31:37.996Z,100134.19
2022-10-17T23:36:40.571Z,100129.84
2022-10-17T23:41:43.155Z,100113.44
2022-10-17T23:46:45.791Z,100112.59
2022-10-17T23:51:48.404Z,100123.72
2022-10-17T23:56:50.965Z,100124.56
